createdAt,value
2023-01-17T00:02:17.255Z,3.20
2023-01-17T00:05:03.239Z,3.40
2023-01-17T00:07:49.385Z,3.20
2023-01-17T00:10:21.721Z,3.50
2023-01-17T00:12:54.136Z,3.20
2023-01-17T00:15:23.359Z,3.60
2023-01-17T00:17:50.870Z,3.70
2023-01-17T00:20:39.142Z,3.50
2023-01-17T00:23:42.096Z,3.60
2023-01-17T00:26:16.750Z,3.50
2023-01-17T00:28:47.345Z,3.80
2023-01-17T00:31:15.883Z,3.80
2023-01-17T00:33:43.136Z,3.90
2023-01-17T00:36:11.053Z,3.90
2023-01-17T00:38:40.087Z,3.80
2023-01-17T00:41:12.751Z,3.70
2023-01-17T00:43:59.373Z,3.70
2023-01-17T00:46:45.102Z,3.50
2023-01-17T00:49:30.733Z,3.70
2023-01-17T00:52:16.639Z,3.60
2023-01-17T00:55:05.068Z,3.90
2023-01-17T00:57:50.469Z,3.90
2023-01-17T01:00:38.996Z,3.80
2023-01-17T01:03:31.040Z,3.70
2023-01-17T01:06:16.403Z,3.60
2023-01-17T01:09:01.755Z,3.50
2023-01-17T01:11:47.334Z,3.60
2023-01-17T01:14:32.699Z,3.30
2023-01-17T01:17:18.165Z,3.40
2023-01-17T01:20:03.556Z,3.60
2023-01-17T01:22:49.068Z,3.50
2023-01-17T01:25:34.455Z,3.70
2023-01-17T01:28:30.904Z,3.50
2023-01-17T01:31:21.064Z,3.40
2023-01-17T01:33:48.353Z,3.40
2023-01-17T01:36:15.340Z,3.60
2023-01-17T01:38:42.523Z,3.50
2023-01-17T01:41:09.699Z,3.50
2023-01-17T01:43:44.102Z,3.70
2023-01-17T01:46:31.281Z,3.70
2023-01-17T01:49:21.500Z,3.70
2023-01-17T01:51:58.449Z,3.50
2023-01-17T01:54:39.457Z,3.50
2023-01-17T01:57:16.331Z,3.70
2023-01-17T01:59:46.774Z,3.30
2023-01-17T02:02:14.510Z,3.50
2023-01-17T02:04:41.594Z,3.30
2023-01-17T02:07:20.330Z,3.40
2023-01-17T02:09:47.550Z,3.30
2023-01-17T02:12:15.001Z,3.40
2023-01-17T02:14:42.634Z,3.30
2023-01-17T02:17:28.442Z,3.20
2023-01-17T02:20:01.335Z,3.00
2023-01-17T02:22:31.551Z,3.10
2023-01-17T02:25:07.806Z,3.30
2023-01-17T02:28:00.203Z,3.20
2023-01-17T02:30:41.154Z,3.30
2023-01-17T02:33:22.642Z,3.40
2023-01-17T02:36:07.624Z,3.60
2023-01-17T02:38:42.003Z,3.20
2023-01-17T02:41:46.849Z,3.10
2023-01-17T02:44:18.690Z,3.50
2023-01-17T02:47:27.927Z,3.20
2023-01-17T02:50:01.696Z,3.30
2023-01-17T02:52:53.503Z,3.20
2023-01-17T02:55:50.541Z,3.30
2023-01-17T02:58:39.897Z,3.10
2023-01-17T03:01:30.201Z,3.50
2023-01-17T03:04:10.424Z,3.40
2023-01-17T03:06:44.942Z,3.50
2023-01-17T03:09:13.906Z,3.30
2023-01-17T03:11:40.782Z,3.50
2023-01-17T03:14:07.727Z,3.10
2023-01-17T03:16:35.033Z,3.30
2023-01-17T03:19:05.185Z,3.40
2023-01-17T03:21:32.121Z,3.40
2023-01-17T03:23:58.896Z,3.40
2023-01-17T03:26:26.052Z,3.20
2023-01-17T03:28:53.600Z,3.20
2023-01-17T03:31:20.617Z,3.30
2023-01-17T03:33:47.653Z,3.60
2023-01-17T03:36:15.083Z,3.50
2023-01-17T03:38:42.233Z,3.60
2023-01-17T03:41:09.309Z,3.50
2023-01-17T03:43:36.441Z,3.50
2023-01-17T03:46:06.058Z,3.70
2023-01-17T03:48:33.304Z,3.50
2023-01-17T03:51:00.466Z,3.50
2023-01-17T03:53:35.685Z,3.50
2023-01-17T03:56:02.604Z,3.40
2023-01-17T03:58:29.492Z,3.10
2023-01-17T04:00:56.439Z,3.30
2023-01-17T04:03:23.536Z,3.20
2023-01-17T04:05:50.485Z,3.20
2023-01-17T04:08:17.553Z,3.10
2023-01-17T04:10:44.533Z,3.20
2023-01-17T04:13:11.417Z,3.10
2023-01-17T04:15:38.857Z,3.00
2023-01-17T04:18:07.445Z,2.70
2023-01-17T04:20:38.709Z,2.90
2023-01-17T04:23:06.975Z,2.80
2023-01-17T04:25:34.101Z,2.90
2023-01-17T04:28:02.093Z,3.10
2023-01-17T04:30:29.792Z,3.00
2023-01-17T04:32:57.675Z,2.90
2023-01-17T04:35:25.408Z,2.80
2023-01-17T04:37:52.724Z,2.90
2023-01-17T04:40:19.811Z,3.00
2023-01-17T04:42:47.622Z,2.90
2023-01-17T04:45:15.780Z,2.90
2023-01-17T04:47:42.890Z,3.10
2023-01-17T04:50:10.553Z,3.00
2023-01-17T04:52:37.720Z,3.00
2023-01-17T04:55:05.129Z,3.20
2023-01-17T04:57:33.423Z,3.00
2023-01-17T05:00:02.325Z,2.80
2023-01-17T05:04:57.116Z,3.00
2023-01-17T05:07:23.995Z,3.10
2023-01-17T05:09:57.442Z,2.80
2023-01-17T05:12:24.592Z,2.80
2023-01-17T05:14:51.514Z,3.00
2023-01-17T05:17:20.702Z,2.80
2023-01-17T05:19:47.822Z,2.40
2023-01-17T05:22:15.508Z,2.50
2023-01-17T05:24:46.836Z,2.60
2023-01-17T05:27:14.859Z,2.60
2023-01-17T05:29:42.264Z,2.60
2023-01-17T05:32:09.261Z,2.50
2023-01-17T05:34:36.314Z,2.50
2023-01-17T05:37:03.504Z,2.30
2023-01-17T05:39:31.192Z,2.30
2023-01-17T05:41:59.322Z,2.20
2023-01-17T05:44:27.773Z,2.30
2023-01-17T05:46:56.401Z,2.30
2023-01-17T05:49:23.571Z,2.40
2023-01-17T05:51:51.197Z,2.40
2023-01-17T05:54:18.933Z,2.10
2023-01-17T05:56:47.306Z,2.30
2023-01-17T05:59:14.494Z,2.00
2023-01-17T06:01:41.644Z,2.10
2023-01-17T06:04:08.761Z,2.10
2023-01-17T06:06:36.391Z,1.80
2023-01-17T06:09:03.586Z,2.20
2023-01-17T06:11:30.432Z,1.90
2023-01-17T06:13:59.872Z,2.10
2023-01-17T06:16:26.865Z,1.80
2023-01-17T06:18:53.849Z,2.10
2023-01-17T06:21:20.960Z,1.90
2023-01-17T06:23:48.137Z,2.60
2023-01-17T06:26:15.012Z,2.90
2023-01-17T06:28:41.871Z,3.00
2023-01-17T06:31:09.671Z,3.30
2023-01-17T06:33:36.947Z,3.50
2023-01-17T06:36:04.200Z,3.80
2023-01-17T06:38:31.391Z,3.90
2023-01-17T06:41:00.607Z,4.20
2023-01-17T06:43:28.683Z,4.20
2023-01-17T06:45:55.617Z,4.10
2023-01-17T06:48:22.483Z,4.40
2023-01-17T06:50:49.912Z,4.50
2023-01-17T06:53:16.851Z,4.50
2023-01-17T06:55:43.745Z,4.60
2023-01-17T06:58:10.634Z,4.60
2023-01-17T07:00:40.329Z,4.70
2023-01-17T07:03:19.819Z,4.90
2023-01-17T07:05:47.376Z,4.90
2023-01-17T07:08:14.587Z,4.80
2023-01-17T07:10:41.481Z,4.90
2023-01-17T07:13:08.587Z,5.10
2023-01-17T07:15:35.528Z,4.90
2023-01-17T07:18:03.804Z,4.80
2023-01-17T07:20:31.178Z,4.90
2023-01-17T07:22:58.356Z,4.90
2023-01-17T07:25:27.700Z,5.00
2023-01-17T07:27:57.710Z,4.90
2023-01-17T07:30:25.100Z,5.10
2023-01-17T07:32:55.844Z,4.80
2023-01-17T07:35:23.657Z,4.70
2023-01-17T07:37:51.157Z,4.20
2023-01-17T07:40:19.232Z,4.20
2023-01-17T07:42:46.775Z,3.60
2023-01-17T07:45:15.925Z,3.40
2023-01-17T07:47:42.843Z,3.40
2023-01-17T07:50:10.573Z,3.60
2023-01-17T07:52:42.056Z,3.40
2023-01-17T07:55:10.003Z,3.20
2023-01-17T07:57:37.014Z,3.40
2023-01-17T08:00:04.849Z,3.10
2023-01-17T08:02:31.749Z,3.30
2023-01-17T08:04:58.635Z,3.30
2023-01-17T08:07:25.597Z,3.30
2023-01-17T08:09:54.468Z,3.20
2023-01-17T08:12:21.494Z,3.30
2023-01-17T08:14:48.407Z,3.10
2023-01-17T08:17:16.952Z,3.40
2023-01-17T08:19:44.868Z,3.30
2023-01-17T08:22:12.703Z,3.10
2023-01-17T08:24:39.858Z,3.00
2023-01-17T08:27:08.967Z,3.30
2023-01-17T08:29:36.242Z,3.10
2023-01-17T08:32:04.012Z,3.20
2023-01-17T08:34:33.600Z,3.10
2023-01-17T08:37:00.460Z,3.30
2023-01-17T08:39:28.220Z,3.40
2023-01-17T08:41:55.137Z,3.30
2023-01-17T08:44:22.191Z,3.20
2023-01-17T08:46:49.448Z,3.50
2023-01-17T08:49:16.533Z,3.20
2023-01-17T08:51:43.385Z,3.20
2023-01-17T08:54:12.993Z,3.00
2023-01-17T08:56:40.560Z,3.20
2023-01-17T08:59:07.342Z,3.20
2023-01-17T09:01:40.738Z,3.40
2023-01-17T09:04:11.891Z,3.20
2023-01-17T09:06:41.088Z,3.30
2023-01-17T09:09:08.755Z,3.40
2023-01-17T09:11:35.642Z,3.40
2023-01-17T09:14:02.957Z,3.30
2023-01-17T09:16:37.128Z,3.30
2023-01-17T09:19:04.023Z,3.50
2023-01-17T09:21:30.972Z,3.40
2023-01-17T09:23:58.144Z,3.40
2023-01-17T09:26:30.290Z,3.50
2023-01-17T09:28:58.747Z,3.60
2023-01-17T09:31:27.304Z,3.40
2023-01-17T09:33:55.762Z,3.40
2023-01-17T09:36:24.123Z,3.60
2023-01-17T09:38:56.776Z,3.40
2023-01-17T09:41:28.926Z,3.50
2023-01-17T09:44:17.266Z,3.60
2023-01-17T09:46:47.366Z,3.50
2023-01-17T09:49:41.895Z,3.50
2023-01-17T09:52:13.977Z,3.40
2023-01-17T09:54:43.467Z,3.50
2023-01-17T09:57:35.465Z,3.70
2023-01-17T10:00:32.542Z,3.50
2023-01-17T10:03:05.386Z,4.00
2023-01-17T10:05:43.880Z,3.90
2023-01-17T10:08:25.304Z,3.80
2023-01-17T10:11:11.012Z,3.90
2023-01-17T10:13:56.497Z,4.10
2023-01-17T10:17:24.773Z,4.10
2023-01-17T10:20:01.316Z,4.00
2023-01-17T10:22:42.743Z,3.90
2023-01-17T10:25:37.931Z,4.00
2023-01-17T10:28:22.726Z,4.20
2023-01-17T10:30:52.786Z,4.10
2023-01-17T10:33:40.030Z,4.30
2023-01-17T10:36:15.406Z,4.30
2023-01-17T10:38:46.928Z,4.20
2023-01-17T10:42:02.525Z,4.10
2023-01-17T10:44:33.646Z,4.20
2023-01-17T10:47:15.048Z,4.10
2023-01-17T10:49:49.044Z,4.40
2023-01-17T10:52:19.239Z,4.40
2023-01-17T10:55:29.016Z,4.10
2023-01-17T10:57:58.024Z,4.20
2023-01-17T11:00:39.933Z,4.60
2023-01-17T11:03:09.829Z,4.40
2023-01-17T11:05:37.960Z,4.50
2023-01-17T11:08:11.286Z,4.50
2023-01-17T11:10:49.102Z,4.60
2023-01-17T11:13:36.771Z,4.70
2023-01-17T11:16:10.677Z,4.60
2023-01-17T11:18:39.915Z,4.70
2023-01-17T11:21:15.157Z,4.50
2023-01-17T11:23:48.773Z,4.80
2023-01-17T11:26:28.922Z,4.40
2023-01-17T11:29:28.536Z,4.40
2023-01-17T11:31:58.646Z,4.70
2023-01-17T11:34:32.131Z,4.80
2023-01-17T11:37:16.306Z,4.80
2023-01-17T11:39:44.415Z,5.00
2023-01-17T11:42:44.093Z,4.90
2023-01-17T11:45:38.154Z,4.90
2023-01-17T11:48:08.371Z,5.10
2023-01-17T11:50:37.603Z,4.80
2023-01-17T11:53:19.771Z,5.00
2023-01-17T11:56:08.017Z,5.00
2023-01-17T11:58:38.183Z,5.10
2023-01-17T12:01:24.857Z,4.90
2023-01-17T12:04:16.750Z,5.00
2023-01-17T12:07:17.140Z,5.10
2023-01-17T12:09:57.668Z,5.00
2023-01-17T12:13:19.124Z,5.00
2023-01-17T12:16:26.739Z,4.90
2023-01-17T12:19:08.628Z,4.80
2023-01-17T12:22:23.793Z,5.00
2023-01-17T12:25:24.905Z,4.90
2023-01-17T12:28:29.550Z,4.70
2023-01-17T12:31:14.285Z,4.80
2023-01-17T12:33:53.029Z,4.30
2023-01-17T12:36:35.203Z,4.50
2023-01-17T12:39:11.823Z,4.60
2023-01-17T12:41:47.866Z,4.60
2023-01-17T12:44:18.668Z,4.50
2023-01-17T12:46:57.168Z,4.40
2023-01-17T12:49:48.832Z,4.20
2023-01-17T12:52:37.595Z,4.40
2023-01-17T12:55:12.197Z,4.60
2023-01-17T12:57:44.179Z,4.50
2023-01-17T13:00:19.884Z,4.60
2023-01-17T13:03:10.185Z,4.20
2023-01-17T13:05:45.224Z,4.40
2023-01-17T13:08:27.233Z,4.40
2023-01-17T13:11:10.283Z,4.30
2023-01-17T13:13:37.545Z,4.50
2023-01-17T13:16:14.491Z,4.60
2023-01-17T13:18:49.459Z,4.20
2023-01-17T13:21:32.144Z,4.30
2023-01-17T13:24:08.215Z,4.30
2023-01-17T13:26:56.431Z,4.60
2023-01-17T13:29:32.712Z,4.50
2023-01-17T13:32:30.781Z,4.40
2023-01-17T13:35:37.174Z,4.30
2023-01-17T13:38:10.992Z,4.30
2023-01-17T13:40:54.203Z,4.50
2023-01-17T13:43:40.834Z,4.60
2023-01-17T13:46:08.454Z,4.60
2023-01-17T13:48:38.667Z,4.30
2023-01-17T13:51:06.582Z,4.60
2023-01-17T13:53:39.328Z,4.20
2023-01-17T13:56:28.457Z,4.10
2023-01-17T13:59:05.095Z,4.30
2023-01-17T14:01:38.738Z,4.10
2023-01-17T14:04:07.157Z,4.40
2023-01-17T14:06:40.768Z,4.30
2023-01-17T14:09:33.495Z,4.20
2023-01-17T14:12:09.648Z,4.10
2023-01-17T14:14:45.313Z,4.30
2023-01-17T14:17:25.880Z,4.10
2023-01-17T14:19:54.143Z,4.20
2023-01-17T14:22:21.026Z,4.10
2023-01-17T14:25:12.262Z,4.20
2023-01-17T14:27:51.238Z,3.90
2023-01-17T14:30:25.851Z,3.90
2023-01-17T14:33:02.022Z,4.00
2023-01-17T14:35:38.267Z,3.90
2023-01-17T14:38:18.756Z,3.90
2023-01-17T14:40:55.218Z,3.90
2023-01-17T14:43:24.771Z,3.90
2023-01-17T14:46:01.092Z,3.80
2023-01-17T14:48:28.851Z,3.90
2023-01-17T14:51:00.020Z,3.90
2023-01-17T14:53:31.799Z,3.80
2023-01-17T14:56:17.802Z,3.80
2023-01-17T14:58:46.748Z,3.80
2023-01-17T15:01:16.271Z,3.90
2023-01-17T15:03:54.828Z,3.80
2023-01-17T15:06:33.284Z,3.90
2023-01-17T15:09:01.128Z,3.50
2023-01-17T15:11:34.106Z,3.60
2023-01-17T15:14:06.072Z,3.70
2023-01-17T15:16:36.360Z,3.50
2023-01-17T15:19:11.631Z,3.50
2023-01-17T15:21:43.246Z,3.80
2023-01-17T15:24:20.108Z,3.40
2023-01-17T15:26:48.572Z,3.50
2023-01-17T15:29:31.634Z,3.40
2023-01-17T15:32:01.508Z,3.50
2023-01-17T15:34:31.393Z,3.50
2023-01-17T15:37:08.149Z,3.70
2023-01-17T15:39:40.582Z,3.40
2023-01-17T15:42:18.374Z,3.40
2023-01-17T15:44:48.914Z,3.60
2023-01-17T15:47:28.121Z,3.40
2023-01-17T15:49:55.131Z,3.60
2023-01-17T15:52:22.197Z,3.40
2023-01-17T15:54:55.167Z,3.40
2023-01-17T15:57:39.891Z,3.30
2023-01-17T16:00:24.160Z,3.10
2023-01-17T16:02:56.243Z,3.40
2023-01-17T16:05:31.021Z,3.20
2023-01-17T16:08:04.827Z,3.40
2023-01-17T16:10:35.645Z,3.30
2023-01-17T16:13:03.191Z,3.20
2023-01-17T16:15:30.767Z,3.10
2023-01-17T16:18:15.595Z,3.10
2023-01-17T16:21:19.832Z,3.00
2023-01-17T16:23:47.181Z,3.00
2023-01-17T16:26:15.453Z,3.00
2023-01-17T16:28:42.852Z,2.70
2023-01-17T16:31:09.888Z,2.70
2023-01-17T16:33:36.863Z,2.60
2023-01-17T16:36:04.156Z,2.80
2023-01-17T16:38:32.340Z,2.50
2023-01-17T16:40:59.348Z,2.40
2023-01-17T16:43:26.308Z,2.60
2023-01-17T16:45:54.309Z,2.60
2023-01-17T16:48:21.749Z,2.80
2023-01-17T16:50:52.435Z,2.50
2023-01-17T16:53:25.448Z,2.50
2023-01-17T16:55:58.878Z,2.70
2023-01-17T16:58:25.824Z,2.50
2023-01-17T17:00:52.836Z,2.60
2023-01-17T17:03:21.246Z,2.60
2023-01-17T17:05:56.600Z,2.90
2023-01-17T17:08:24.411Z,2.80
2023-01-17T17:10:52.439Z,2.80
2023-01-17T17:13:19.423Z,2.70
2023-01-17T17:15:46.951Z,2.70
2023-01-17T17:18:15.608Z,2.80
2023-01-17T17:20:43.608Z,2.60
2023-01-17T17:23:12.496Z,2.80
2023-01-17T17:25:39.437Z,2.70
2023-01-17T17:28:06.829Z,2.60
2023-01-17T17:30:34.763Z,2.80
2023-01-17T17:33:04.817Z,2.90
2023-01-17T17:35:35.133Z,2.90
2023-01-17T17:38:02.282Z,2.90
2023-01-17T17:40:29.103Z,2.80
2023-01-17T17:42:55.968Z,2.80
2023-01-17T17:45:22.931Z,2.90
2023-01-17T17:47:49.752Z,3.00
2023-01-17T17:50:16.747Z,2.60
2023-01-17T17:52:44.255Z,2.60
2023-01-17T17:55:11.363Z,2.80
2023-01-17T17:57:49.592Z,2.70
2023-01-17T18:00:16.961Z,2.70
2023-01-17T18:02:43.966Z,2.80
2023-01-17T18:05:23.288Z,2.80
2023-01-17T18:07:51.141Z,2.70
2023-01-17T18:10:21.164Z,2.90
2023-01-17T18:12:49.338Z,2.90
2023-01-17T18:15:16.254Z,2.80
2023-01-17T18:17:43.140Z,2.70
2023-01-17T18:20:11.220Z,2.80
2023-01-17T18:22:38.096Z,2.50
2023-01-17T18:25:05.474Z,2.60
2023-01-17T18:27:32.609Z,2.80
2023-01-17T18:29:59.769Z,2.70
2023-01-17T18:32:26.963Z,2.90
2023-01-17T18:34:54.062Z,3.10
2023-01-17T18:37:23.165Z,3.00
2023-01-17T18:39:50.023Z,2.90
2023-01-17T18:42:21.197Z,3.10
2023-01-17T18:44:49.585Z,2.90
2023-01-17T18:47:16.422Z,3.20
2023-01-17T18:49:43.297Z,3.20
2023-01-17T18:52:11.378Z,3.10
2023-01-17T18:54:38.231Z,3.20
2023-01-17T18:57:05.102Z,3.20
2023-01-17T18:59:32.429Z,3.00
2023-01-17T19:01:59.609Z,2.90
2023-01-17T19:04:28.482Z,3.00
2023-01-17T19:06:55.750Z,3.10
2023-01-17T19:09:22.747Z,3.20
2023-01-17T19:11:50.193Z,3.20
2023-01-17T19:14:17.269Z,3.20
2023-01-17T19:16:44.681Z,3.10
2023-01-17T19:19:14.386Z,3.30
2023-01-17T19:21:41.608Z,3.30
2023-01-17T19:24:10.251Z,3.00
2023-01-17T19:26:37.405Z,3.10
2023-01-17T19:29:05.278Z,3.00
2023-01-17T19:31:36.057Z,2.90
2023-01-17T19:34:02.943Z,3.00
2023-01-17T19:36:34.479Z,3.10
2023-01-17T19:39:05.664Z,2.90
2023-01-17T19:41:36.088Z,3.00
2023-01-17T19:44:05.530Z,2.90
2023-01-17T19:46:33.011Z,2.90
2023-01-17T19:49:00.019Z,2.70
2023-01-17T19:51:27.592Z,2.70
2023-01-17T19:53:55.217Z,2.60
2023-01-17T19:56:25.124Z,2.50
2023-01-17T19:58:52.775Z,2.50
2023-01-17T20:01:28.885Z,2.20
2023-01-17T20:03:58.034Z,2.40
2023-01-17T20:06:29.052Z,2.40
2023-01-17T20:08:56.577Z,1.90
2023-01-17T20:11:25.562Z,2.10
2023-01-17T20:13:57.757Z,2.10
2023-01-17T20:16:26.753Z,2.20
2023-01-17T20:18:53.964Z,2.10
2023-01-17T20:21:26.987Z,1.90
2023-01-17T20:23:55.580Z,1.90
2023-01-17T20:26:25.391Z,2.10
2023-01-17T20:28:52.443Z,2.00
2023-01-17T20:31:22.331Z,2.10
2023-01-17T20:33:50.786Z,2.10
2023-01-17T20:36:19.261Z,1.90
2023-01-17T20:38:46.964Z,1.90
2023-01-17T20:41:29.087Z,2.00
2023-01-17T20:43:59.730Z,2.10
2023-01-17T20:46:29.294Z,2.00
2023-01-17T20:48:57.975Z,2.00
2023-01-17T20:51:27.081Z,2.20
2023-01-17T20:53:59.716Z,2.30
2023-01-17T20:56:27.633Z,2.20
2023-01-17T20:58:56.727Z,2.40
2023-01-17T21:01:24.200Z,2.40
2023-01-17T21:03:54.055Z,2.10
2023-01-17T21:06:23.521Z,2.20
2023-01-17T21:08:51.494Z,2.40
2023-01-17T21:11:24.949Z,2.10
2023-01-17T21:13:52.208Z,2.20
2023-01-17T21:16:23.182Z,2.40
2023-01-17T21:18:52.091Z,2.40
2023-01-17T21:21:24.355Z,2.20
2023-01-17T21:23:53.482Z,2.20
2023-01-17T21:26:21.986Z,2.30
2023-01-17T21:28:50.839Z,2.30
2023-01-17T21:31:24.172Z,2.10
2023-01-17T21:34:00.262Z,2.20
2023-01-17T21:36:32.808Z,2.10
2023-01-17T21:39:05.022Z,2.00
2023-01-17T21:41:35.144Z,2.10
2023-01-17T21:44:05.397Z,2.10
2023-01-17T21:46:35.765Z,1.90
2023-01-17T21:49:03.239Z,1.60
2023-01-17T21:52:07.274Z,1.70
2023-01-17T21:54:52.592Z,1.90
2023-01-17T21:57:40.554Z,2.10
2023-01-17T22:00:10.530Z,2.00
2023-01-17T22:02:37.683Z,1.90
2023-01-17T22:05:05.156Z,1.80
2023-01-17T22:07:32.146Z,1.90
2023-01-17T22:09:58.985Z,1.60
2023-01-17T22:12:25.888Z,1.90
2023-01-17T22:14:53.852Z,1.90
2023-01-17T22:17:21.437Z,1.60
2023-01-17T22:19:48.841Z,1.70
2023-01-17T22:22:15.834Z,1.40
2023-01-17T22:24:43.043Z,1.60
2023-01-17T22:27:10.642Z,1.50
2023-01-17T22:29:38.528Z,1.50
2023-01-17T22:32:05.548Z,1.80
2023-01-17T22:34:32.867Z,1.70
2023-01-17T22:37:00.601Z,1.40
2023-01-17T22:39:27.698Z,1.70
2023-01-17T22:41:54.569Z,1.80
2023-01-17T22:44:21.886Z,1.50
2023-01-17T22:46:53.502Z,1.40
2023-01-17T22:49:23.472Z,1.50
2023-01-17T22:51:50.913Z,1.40
2023-01-17T22:54:19.705Z,1.40
2023-01-17T22:56:46.856Z,1.40
2023-01-17T22:59:14.315Z,1.30
2023-01-17T23:01:41.670Z,1.60
2023-01-17T23:04:12.868Z,1.60
2023-01-17T23:06:40.816Z,1.70
2023-01-17T23:09:13.423Z,1.60
2023-01-17T23:11:47.276Z,1.80
2023-01-17T23:15:02.033Z,1.70
2023-01-17T23:17:47.520Z,1.50
2023-01-17T23:20:22.842Z,1.70
2023-01-17T23:22:50.006Z,1.80
2023-01-17T23:25:17.034Z,2.00
2023-01-17T23:28:04.971Z,1.90
2023-01-17T23:30:36.432Z,1.70
2023-01-17T23:33:06.299Z,1.90
2023-01-17T23:35:41.716Z,2.20
2023-01-17T23:38:25.930Z,1.80
2023-01-17T23:41:12.316Z,2.20
2023-01-17T23:43:40.539Z,1.90
2023-01-17T23:46:12.512Z,2.00
2023-01-17T23:48:39.454Z,2.10
2023-01-17T23:51:09.474Z,2.20
2023-01-17T23:53:38.478Z,2.30
2023-01-17T23:56:12.675Z,2.20
2023-01-17T23:58:39.631Z,2.30
